sensor_id;sensor_type;location;lat;lon;timestamp;temperature;humidity
14192;DHT22;7177;48.572;7.838;2023-05-07T00:01:04;14.60;99.90
14192;DHT22;7177;48.572;7.838;2023-05-07T00:03:31;14.70;99.90
14192;DHT22;7177;48.572;7.838;2023-05-07T00:05:57;14.60;99.90
14192;DHT22;7177;48.572;7.838;2023-05-07T00:08:23;14.60;99.90
14192;DHT22;7177;48.572;7.838;2023-05-07T00:10:48;14.70;99.90
14192;DHT22;7177;48.572;7.838;2023-05-07T00:13:14;14.70;99.90
14192;DHT22;7177;48.572;7.838;2023-05-07T00:15:40;14.70;99.90
14192;DHT22;7177;48.572;7.838;2023-05-07T00:18:05;14.60;99.90
14192;DHT22;7177;48.572;7.838;2023-05-07T00:20:31;14.60;99.90
14192;DHT22;7177;48.572;7.838;2023-05-07T00:22:56;14.70;99.90
14192;DHT22;7177;48.572;7.838;2023-05-07T00:25:22;14.60;99.90
14192;DHT22;7177;48.572;7.838;2023-05-07T00:27:48;14.50;99.90
14192;DHT22;7177;48.572;7.838;2023-05-07T00:30:13;14.40;99.90
14192;DHT22;7177;48.572;7.838;2023-05-07T00:32:39;14.40;99.90
14192;DHT22;7177;48.572;7.838;2023-05-07T00:35:05;14.30;99.90
14192;DHT22;7177;48.572;7.838;2023-05-07T00:37:31;14.20;99.90
14192;DHT22;7177;48.572;7.838;2023-05-07T00:39:57;13.90;99.90
14192;DHT22;7177;48.572;7.838;2023-05-07T00:42:22;13.90;99.90
14192;DHT22;7177;48.572;7.838;2023-05-07T00:44:49;13.90;99.90
14192;DHT22;7177;48.572;7.838;2023-05-07T00:47:15;13.90;99.90
14192;DHT22;7177;48.572;7.838;2023-05-07T00:49:42;14.00;99.90
14192;DHT22;7177;48.572;7.838;2023-05-07T00:52:14;14.00;99.90
14192;DHT22;7177;48.572;7.838;2023-05-07T00:54:41;14.00;99.90
14192;DHT22;7177;48.572;7.838;2023-05-07T00:57:07;14.10;99.90
14192;DHT22;7177;48.572;7.838;2023-05-07T00:59:34;14.00;99.90
14192;DHT22;7177;48.572;7.838;2023-05-07T01:02:00;13.90;99.90
14192;DHT22;7177;48.572;7.838;2023-05-07T01:04:26;13.80;99.90
14192;DHT22;7177;48.572;7.838;2023-05-07T01:06:53;13.70;99.90
14192;DHT22;7177;48.572;7.838;2023-05-07T01:09:21;13.50;99.90
14192;DHT22;7177;48.572;7.838;2023-05-07T01:11:48;13.30;99.90
14192;DHT22;7177;48.572;7.838;2023-05-07T01:14:14;13.30;99.90
14192;DHT22;7177;48.572;7.838;2023-05-07T01:16:40;13.40;99.90
14192;DHT22;7177;48.572;7.838;2023-05-07T01:19:08;13.40;99.90
14192;DHT22;7177;48.572;7.838;2023-05-07T01:21:33;13.50;99.90
14192;DHT22;7177;48.572;7.838;2023-05-07T01:24:00;13.40;99.90
14192;DHT22;7177;48.572;7.838;2023-05-07T01:26:26;13.30;99.90
14192;DHT22;7177;48.572;7.838;2023-05-07T01:28:51;13.40;99.90
14192;DHT22;7177;48.572;7.838;2023-05-07T01:31:17;13.40;99.90
14192;DHT22;7177;48.572;7.838;2023-05-07T01:33:44;13.40;99.90
14192;DHT22;7177;48.572;7.838;2023-05-07T01:36:11;13.50;99.90
14192;DHT22;7177;48.572;7.838;2023-05-07T01:38:38;13.50;99.90
14192;DHT22;7177;48.572;7.838;2023-05-07T01:41:04;13.50;99.90
14192;DHT22;7177;48.572;7.838;2023-05-07T01:43:30;13.50;99.90
14192;DHT22;7177;48.572;7.838;2023-05-07T01:45:57;13.50;99.90
14192;DHT22;7177;48.572;7.838;2023-05-07T01:48:24;13.30;99.90
14192;DHT22;7177;48.572;7.838;2023-05-07T01:50:50;13.20;99.90
14192;DHT22;7177;48.572;7.838;2023-05-07T01:53:16;13.00;99.90
14192;DHT22;7177;48.572;7.838;2023-05-07T01:55:42;12.90;99.90
14192;DHT22;7177;48.572;7.838;2023-05-07T01:58:07;12.90;99.90
14192;DHT22;7177;48.572;7.838;2023-05-07T02:00:34;12.80;99.90
14192;DHT22;7177;48.572;7.838;2023-05-07T02:02:59;12.90;99.90
14192;DHT22;7177;48.572;7.838;2023-05-07T02:05:25;13.00;99.90
14192;DHT22;7177;48.572;7.838;2023-05-07T02:07:50;13.10;99.90
14192;DHT22;7177;48.572;7.838;2023-05-07T02:10:16;13.10;99.90
14192;DHT22;7177;48.572;7.838;2023-05-07T02:12:41;13.20;99.90
14192;DHT22;7177;48.572;7.838;2023-05-07T02:15:08;13.20;99.90
14192;DHT22;7177;48.572;7.838;2023-05-07T02:17:33;13.30;99.90
14192;DHT22;7177;48.572;7.838;2023-05-07T02:19:59;13.30;99.90
14192;DHT22;7177;48.572;7.838;2023-05-07T02:22:25;13.30;99.90
14192;DHT22;7177;48.572;7.838;2023-05-07T02:24:51;13.30;99.90
14192;DHT22;7177;48.572;7.838;2023-05-07T02:27:16;13.30;99.90
14192;DHT22;7177;48.572;7.838;2023-05-07T02:29:42;13.10;99.90
14192;DHT22;7177;48.572;7.838;2023-05-07T02:32:07;13.00;99.90
14192;DHT22;7177;48.572;7.838;2023-05-07T02:34:33;13.00;99.90
14192;DHT22;7177;48.572;7.838;2023-05-07T02:36:58;13.00;99.90
14192;DHT22;7177;48.572;7.838;2023-05-07T02:39:24;13.00;99.90
14192;DHT22;7177;48.572;7.838;2023-05-07T02:41:49;13.00;99.90
14192;DHT22;7177;48.572;7.838;2023-05-07T02:44:15;13.00;99.90
14192;DHT22;7177;48.572;7.838;2023-05-07T02:46:40;12.90;99.90
14192;DHT22;7177;48.572;7.838;2023-05-07T02:49:06;12.70;99.90
14192;DHT22;7177;48.572;7.838;2023-05-07T02:51:31;12.70;99.90
14192;DHT22;7177;48.572;7.838;2023-05-07T02:53:57;12.80;99.90
14192;DHT22;7177;48.572;7.838;2023-05-07T02:56:23;12.70;99.90
14192;DHT22;7177;48.572;7.838;2023-05-07T02:58:48;12.70;99.90
14192;DHT22;7177;48.572;7.838;2023-05-07T03:01:14;12.50;99.90
14192;DHT22;7177;48.572;7.838;2023-05-07T03:03:40;12.50;99.90
14192;DHT22;7177;48.572;7.838;2023-05-07T03:06:06;12.50;99.90
14192;DHT22;7177;48.572;7.838;2023-05-07T03:08:32;12.50;99.90
14192;DHT22;7177;48.572;7.838;2023-05-07T03:10:58;12.60;99.90
14192;DHT22;7177;48.572;7.838;2023-05-07T03:13:23;12.60;99.90
14192;DHT22;7177;48.572;7.838;2023-05-07T03:15:49;12.60;99.90
14192;DHT22;7177;48.572;7.838;2023-05-07T03:18:14;12.40;99.90
14192;DHT22;7177;48.572;7.838;2023-05-07T03:20:40;12.40;99.90
14192;DHT22;7177;48.572;7.838;2023-05-07T03:23:05;12.40;99.90
14192;DHT22;7177;48.572;7.838;2023-05-07T03:25:32;12.40;99.90
14192;DHT22;7177;48.572;7.838;2023-05-07T03:27:57;12.30;99.90
14192;DHT22;7177;48.572;7.838;2023-05-07T03:30:23;12.30;99.90
14192;DHT22;7177;48.572;7.838;2023-05-07T03:32:49;12.30;99.90
14192;DHT22;7177;48.572;7.838;2023-05-07T03:35:14;12.30;99.90
14192;DHT22;7177;48.572;7.838;2023-05-07T03:37:40;12.30;99.90
14192;DHT22;7177;48.572;7.838;2023-05-07T03:40:06;12.20;99.90
14192;DHT22;7177;48.572;7.838;2023-05-07T03:42:33;12.20;99.90
14192;DHT22;7177;48.572;7.838;2023-05-07T03:44:58;12.20;99.90
14192;DHT22;7177;48.572;7.838;2023-05-07T03:47:24;12.30;99.90
14192;DHT22;7177;48.572;7.838;2023-05-07T03:49:49;12.20;99.90
14192;DHT22;7177;48.572;7.838;2023-05-07T03:52:18;12.20;99.90
14192;DHT22;7177;48.572;7.838;2023-05-07T03:54:48;12.30;99.90
14192;DHT22;7177;48.572;7.838;2023-05-07T03:57:13;12.30;99.90
14192;DHT22;7177;48.572;7.838;2023-05-07T03:59:39;12.30;99.90
14192;DHT22;7177;48.572;7.838;2023-05-07T04:02:04;12.30;99.90
14192;DHT22;7177;48.572;7.838;2023-05-07T04:04:30;12.20;99.90
14192;DHT22;7177;48.572;7.838;2023-05-07T04:06:58;12.20;99.90
14192;DHT22;7177;48.572;7.838;2023-05-07T04:09:24;12.20;99.90
14192;DHT22;7177;48.572;7.838;2023-05-07T04:11:50;12.20;99.90
14192;DHT22;7177;48.572;7.838;2023-05-07T04:14:16;12.20;99.90
14192;DHT22;7177;48.572;7.838;2023-05-07T04:16:41;12.30;99.90
14192;DHT22;7177;48.572;7.838;2023-05-07T04:19:07;12.30;99.90
14192;DHT22;7177;48.572;7.838;2023-05-07T04:21:32;12.40;99.90
14192;DHT22;7177;48.572;7.838;2023-05-07T04:23:58;12.40;99.90
14192;DHT22;7177;48.572;7.838;2023-05-07T04:26:23;12.30;99.90
14192;DHT22;7177;48.572;7.838;2023-05-07T04:28:49;12.30;99.90
14192;DHT22;7177;48.572;7.838;2023-05-07T04:31:15;12.30;99.90
14192;DHT22;7177;48.572;7.838;2023-05-07T04:33:41;12.40;99.90
14192;DHT22;7177;48.572;7.838;2023-05-07T04:36:06;12.50;99.90
14192;DHT22;7177;48.572;7.838;2023-05-07T04:38:32;12.50;99.90
14192;DHT22;7177;48.572;7.838;2023-05-07T04:41:03;12.50;99.90
14192;DHT22;7177;48.572;7.838;2023-05-07T04:43:28;12.40;99.90
14192;DHT22;7177;48.572;7.838;2023-05-07T04:45:54;12.40;99.90
14192;DHT22;7177;48.572;7.838;2023-05-07T04:48:19;12.50;99.90
14192;DHT22;7177;48.572;7.838;2023-05-07T04:50:49;12.60;99.90
14192;DHT22;7177;48.572;7.838;2023-05-07T04:53:15;12.70;99.90
14192;DHT22;7177;48.572;7.838;2023-05-07T04:55:40;12.80;99.90
14192;DHT22;7177;48.572;7.838;2023-05-07T04:58:06;12.90;99.90
14192;DHT22;7177;48.572;7.838;2023-05-07T05:00:31;12.90;99.90
14192;DHT22;7177;48.572;7.838;2023-05-07T05:02:57;12.80;99.90
14192;DHT22;7177;48.572;7.838;2023-05-07T05:05:22;12.80;99.90
14192;DHT22;7177;48.572;7.838;2023-05-07T05:07:48;12.80;99.90
14192;DHT22;7177;48.572;7.838;2023-05-07T05:10:13;12.90;99.90
14192;DHT22;7177;48.572;7.838;2023-05-07T05:12:39;13.00;99.90
14192;DHT22;7177;48.572;7.838;2023-05-07T05:15:05;13.20;99.90
14192;DHT22;7177;48.572;7.838;2023-05-07T05:17:31;13.30;99.90
14192;DHT22;7177;48.572;7.838;2023-05-07T05:19:56;13.60;99.90
14192;DHT22;7177;48.572;7.838;2023-05-07T05:22:22;13.80;99.90
14192;DHT22;7177;48.572;7.838;2023-05-07T05:24:47;14.10;99.90
14192;DHT22;7177;48.572;7.838;2023-05-07T05:27:13;14.30;99.90
14192;DHT22;7177;48.572;7.838;2023-05-07T05:29:38;14.40;99.90
14192;DHT22;7177;48.572;7.838;2023-05-07T05:32:04;14.60;99.90
14192;DHT22;7177;48.572;7.838;2023-05-07T05:34:29;14.70;99.90
14192;DHT22;7177;48.572;7.838;2023-05-07T05:36:55;15.10;99.90
14192;DHT22;7177;48.572;7.838;2023-05-07T05:39:20;15.50;99.90
14192;DHT22;7177;48.572;7.838;2023-05-07T05:41:46;15.80;99.90
14192;DHT22;7177;48.572;7.838;2023-05-07T05:44:12;15.80;99.90
14192;DHT22;7177;48.572;7.838;2023-05-07T05:46:37;16.00;99.90
14192;DHT22;7177;48.572;7.838;2023-05-07T05:49:03;16.20;99.90
14192;DHT22;7177;48.572;7.838;2023-05-07T05:51:28;16.30;99.90
14192;DHT22;7177;48.572;7.838;2023-05-07T05:53:54;16.30;99.90
14192;DHT22;7177;48.572;7.838;2023-05-07T05:56:19;16.30;99.90
14192;DHT22;7177;48.572;7.838;2023-05-07T05:58:46;16.20;99.90
14192;DHT22;7177;48.572;7.838;2023-05-07T06:01:11;15.90;99.90
14192;DHT22;7177;48.572;7.838;2023-05-07T06:03:37;15.80;99.90
14192;DHT22;7177;48.572;7.838;2023-05-07T06:06:02;15.70;99.90
14192;DHT22;7177;48.572;7.838;2023-05-07T06:08:31;15.40;99.90
14192;DHT22;7177;48.572;7.838;2023-05-07T06:10:57;15.30;99.90
14192;DHT22;7177;48.572;7.838;2023-05-07T06:13:23;15.20;99.90
14192;DHT22;7177;48.572;7.838;2023-05-07T06:15:49;15.10;99.90
14192;DHT22;7177;48.572;7.838;2023-05-07T06:18:15;15.10;99.90
14192;DHT22;7177;48.572;7.838;2023-05-07T06:20:40;15.10;99.90
14192;DHT22;7177;48.572;7.838;2023-05-07T06:23:06;15.10;99.90
14192;DHT22;7177;48.572;7.838;2023-05-07T06:25:31;15.10;99.90
14192;DHT22;7177;48.572;7.838;2023-05-07T06:27:57;15.00;99.90
14192;DHT22;7177;48.572;7.838;2023-05-07T06:30:22;14.90;99.90
14192;DHT22;7177;48.572;7.838;2023-05-07T06:32:48;15.00;99.90
14192;DHT22;7177;48.572;7.838;2023-05-07T06:35:13;15.00;99.90
14192;DHT22;7177;48.572;7.838;2023-05-07T06:37:39;15.10;99.90
14192;DHT22;7177;48.572;7.838;2023-05-07T06:40:08;15.20;99.90
14192;DHT22;7177;48.572;7.838;2023-05-07T06:42:33;15.30;99.90
14192;DHT22;7177;48.572;7.838;2023-05-07T06:44:59;15.20;99.90
14192;DHT22;7177;48.572;7.838;2023-05-07T06:47:24;15.20;99.90
14192;DHT22;7177;48.572;7.838;2023-05-07T06:49:50;15.20;99.90
14192;DHT22;7177;48.572;7.838;2023-05-07T06:52:15;15.30;99.90
14192;DHT22;7177;48.572;7.838;2023-05-07T06:54:41;15.30;99.90
14192;DHT22;7177;48.572;7.838;2023-05-07T06:57:06;15.40;99.90
14192;DHT22;7177;48.572;7.838;2023-05-07T06:59:32;15.50;99.90
14192;DHT22;7177;48.572;7.838;2023-05-07T07:01:58;15.70;99.90
14192;DHT22;7177;48.572;7.838;2023-05-07T07:04:23;16.00;99.90
14192;DHT22;7177;48.572;7.838;2023-05-07T07:06:49;16.00;99.90
14192;DHT22;7177;48.572;7.838;2023-05-07T07:09:16;15.90;99.90
14192;DHT22;7177;48.572;7.838;2023-05-07T07:11:42;15.90;99.90
14192;DHT22;7177;48.572;7.838;2023-05-07T07:14:07;15.90;99.90
14192;DHT22;7177;48.572;7.838;2023-05-07T07:16:33;15.80;99.90
14192;DHT22;7177;48.572;7.838;2023-05-07T07:18:58;15.90;99.90
14192;DHT22;7177;48.572;7.838;2023-05-07T07:21:24;16.10;99.90
14192;DHT22;7177;48.572;7.838;2023-05-07T07:23:49;16.40;99.90
14192;DHT22;7177;48.572;7.838;2023-05-07T07:26:15;16.70;99.90
14192;DHT22;7177;48.572;7.838;2023-05-07T07:28:46;17.10;99.90
14192;DHT22;7177;48.572;7.838;2023-05-07T07:31:12;17.50;99.90
14192;DHT22;7177;48.572;7.838;2023-05-07T07:33:38;17.90;99.90
14192;DHT22;7177;48.572;7.838;2023-05-07T07:36:05;18.40;99.90
14192;DHT22;7177;48.572;7.838;2023-05-07T07:38:31;18.50;99.90
14192;DHT22;7177;48.572;7.838;2023-05-07T07:40:56;18.40;99.90
14192;DHT22;7177;48.572;7.838;2023-05-07T07:43:22;18.40;99.90
14192;DHT22;7177;48.572;7.838;2023-05-07T07:45:47;18.60;99.90
14192;DHT22;7177;48.572;7.838;2023-05-07T07:48:13;18.90;99.90
14192;DHT22;7177;48.572;7.838;2023-05-07T07:50:39;19.10;99.90
14192;DHT22;7177;48.572;7.838;2023-05-07T07:53:05;19.60;99.90
14192;DHT22;7177;48.572;7.838;2023-05-07T07:55:30;20.10;99.90
14192;DHT22;7177;48.572;7.838;2023-05-07T07:57:57;20.40;99.90
14192;DHT22;7177;48.572;7.838;2023-05-07T08:00:22;20.30;99.90
14192;DHT22;7177;48.572;7.838;2023-05-07T08:02:48;19.90;99.90
14192;DHT22;7177;48.572;7.838;2023-05-07T08:05:14;19.60;99.90
14192;DHT22;7177;48.572;7.838;2023-05-07T08:07:40;19.70;99.90
14192;DHT22;7177;48.572;7.838;2023-05-07T08:10:06;19.70;99.90
14192;DHT22;7177;48.572;7.838;2023-05-07T08:12:32;20.00;99.90
14192;DHT22;7177;48.572;7.838;2023-05-07T08:14:57;20.20;99.90
14192;DHT22;7177;48.572;7.838;2023-05-07T08:17:23;20.70;99.90
14192;DHT22;7177;48.572;7.838;2023-05-07T08:19:48;21.10;99.90
14192;DHT22;7177;48.572;7.838;2023-05-07T08:22:14;20.70;99.90
14192;DHT22;7177;48.572;7.838;2023-05-07T08:24:40;20.50;99.90
14192;DHT22;7177;48.572;7.838;2023-05-07T08:27:05;20.40;99.90
14192;DHT22;7177;48.572;7.838;2023-05-07T08:29:31;20.40;99.90
14192;DHT22;7177;48.572;7.838;2023-05-07T08:31:56;20.60;99.90
14192;DHT22;7177;48.572;7.838;2023-05-07T08:34:22;20.90;99.90
14192;DHT22;7177;48.572;7.838;2023-05-07T08:36:48;20.80;99.90
14192;DHT22;7177;48.572;7.838;2023-05-07T08:39:17;20.90;99.90
14192;DHT22;7177;48.572;7.838;2023-05-07T08:41:44;21.10;99.90
14192;DHT22;7177;48.572;7.838;2023-05-07T08:44:12;21.60;99.90
14192;DHT22;7177;48.572;7.838;2023-05-07T08:46:39;22.10;99.90
14192;DHT22;7177;48.572;7.838;2023-05-07T08:49:07;22.40;99.90
14192;DHT22;7177;48.572;7.838;2023-05-07T08:51:33;23.10;99.90
14192;DHT22;7177;48.572;7.838;2023-05-07T08:53:59;23.60;99.90
14192;DHT22;7177;48.572;7.838;2023-05-07T08:56:26;24.10;99.90
14192;DHT22;7177;48.572;7.838;2023-05-07T08:58:52;24.10;99.90
14192;DHT22;7177;48.572;7.838;2023-05-07T09:01:21;24.30;99.90
14192;DHT22;7177;48.572;7.838;2023-05-07T09:03:47;24.30;99.90
14192;DHT22;7177;48.572;7.838;2023-05-07T09:06:13;24.50;99.90
14192;DHT22;7177;48.572;7.838;2023-05-07T09:08:39;24.20;99.90
14192;DHT22;7177;48.572;7.838;2023-05-07T09:11:04;24.20;99.90
14192;DHT22;7177;48.572;7.838;2023-05-07T09:13:30;24.00;99.90
14192;DHT22;7177;48.572;7.838;2023-05-07T09:15:56;23.90;99.90
14192;DHT22;7177;48.572;7.838;2023-05-07T09:18:24;23.60;99.90
14192;DHT22;7177;48.572;7.838;2023-05-07T09:20:49;23.40;99.90
14192;DHT22;7177;48.572;7.838;2023-05-07T09:23:16;23.30;99.90
14192;DHT22;7177;48.572;7.838;2023-05-07T09:25:41;23.20;99.90
14192;DHT22;7177;48.572;7.838;2023-05-07T09:28:07;23.00;99.90
14192;DHT22;7177;48.572;7.838;2023-05-07T09:30:34;22.80;99.90
14192;DHT22;7177;48.572;7.838;2023-05-07T09:33:01;22.90;99.90
14192;DHT22;7177;48.572;7.838;2023-05-07T09:35:27;23.20;99.90
14192;DHT22;7177;48.572;7.838;2023-05-07T09:37:58;23.20;99.90
14192;DHT22;7177;48.572;7.838;2023-05-07T09:40:25;23.30;99.90
14192;DHT22;7177;48.572;7.838;2023-05-07T09:42:51;23.50;99.90
14192;DHT22;7177;48.572;7.838;2023-05-07T09:45:22;23.20;99.90
14192;DHT22;7177;48.572;7.838;2023-05-07T09:47:49;23.40;99.90
14192;DHT22;7177;48.572;7.838;2023-05-07T09:50:19;23.80;99.90
14192;DHT22;7177;48.572;7.838;2023-05-07T09:52:46;24.30;99.90
14192;DHT22;7177;48.572;7.838;2023-05-07T09:55:13;24.60;99.90
14192;DHT22;7177;48.572;7.838;2023-05-07T09:57:39;24.60;99.90
14192;DHT22;7177;48.572;7.838;2023-05-07T10:00:06;24.50;99.90
14192;DHT22;7177;48.572;7.838;2023-05-07T10:02:34;24.30;99.90
14192;DHT22;7177;48.572;7.838;2023-05-07T10:05:01;23.90;99.90
14192;DHT22;7177;48.572;7.838;2023-05-07T10:07:27;23.70;99.90
14192;DHT22;7177;48.572;7.838;2023-05-07T10:09:54;23.50;99.90
14192;DHT22;7177;48.572;7.838;2023-05-07T10:12:20;23.40;99.90
14192;DHT22;7177;48.572;7.838;2023-05-07T10:14:46;23.20;99.90
14192;DHT22;7177;48.572;7.838;2023-05-07T10:17:13;23.30;99.90
14192;DHT22;7177;48.572;7.838;2023-05-07T10:19:43;23.20;99.90
14192;DHT22;7177;48.572;7.838;2023-05-07T10:22:09;23.20;99.90
14192;DHT22;7177;48.572;7.838;2023-05-07T10:24:36;23.10;99.90
14192;DHT22;7177;48.572;7.838;2023-05-07T10:27:07;23.30;99.90
14192;DHT22;7177;48.572;7.838;2023-05-07T10:29:39;23.30;99.90
14192;DHT22;7177;48.572;7.838;2023-05-07T10:35:02;23.50;99.90
14192;DHT22;7177;48.572;7.838;2023-05-07T10:37:30;23.80;99.90
14192;DHT22;7177;48.572;7.838;2023-05-07T10:39:56;23.80;99.90
14192;DHT22;7177;48.572;7.838;2023-05-07T10:42:22;23.90;99.90
14192;DHT22;7177;48.572;7.838;2023-05-07T10:44:48;24.20;99.90
14192;DHT22;7177;48.572;7.838;2023-05-07T10:47:16;24.20;99.90
14192;DHT22;7177;48.572;7.838;2023-05-07T10:52:15;23.50;99.90
14192;DHT22;7177;48.572;7.838;2023-05-07T10:54:42;23.30;99.90
14192;DHT22;7177;48.572;7.838;2023-05-07T10:57:34;23.50;99.90
14192;DHT22;7177;48.572;7.838;2023-05-07T11:00:03;23.70;99.90
14192;DHT22;7177;48.572;7.838;2023-05-07T11:05:31;24.80;99.90
14192;DHT22;7177;48.572;7.838;2023-05-07T11:07:58;25.80;99.90
14192;DHT22;7177;48.572;7.838;2023-05-07T11:13:15;26.90;99.90
14192;DHT22;7177;48.572;7.838;2023-05-07T11:15:46;27.10;99.90
14192;DHT22;7177;48.572;7.838;2023-05-07T11:18:16;26.80;99.90
14192;DHT22;7177;48.572;7.838;2023-05-07T11:20:57;26.70;99.90
14192;DHT22;7177;48.572;7.838;2023-05-07T11:26:04;26.50;99.90
14192;DHT22;7177;48.572;7.838;2023-05-07T11:28:30;26.30;99.90
14192;DHT22;7177;48.572;7.838;2023-05-07T11:30:57;26.10;99.90
14192;DHT22;7177;48.572;7.838;2023-05-07T11:33:23;25.60;99.90
14192;DHT22;7177;48.572;7.838;2023-05-07T11:35:52;25.30;99.90
14192;DHT22;7177;48.572;7.838;2023-05-07T11:38:18;25.10;99.90
14192;DHT22;7177;48.572;7.838;2023-05-07T11:40:55;25.10;99.90
14192;DHT22;7177;48.572;7.838;2023-05-07T11:43:21;24.80;99.90
14192;DHT22;7177;48.572;7.838;2023-05-07T11:45:48;24.50;99.90
14192;DHT22;7177;48.572;7.838;2023-05-07T11:48:14;24.50;99.90
14192;DHT22;7177;48.572;7.838;2023-05-07T11:50:59;24.40;99.90
14192;DHT22;7177;48.572;7.838;2023-05-07T11:53:26;24.10;99.90
14192;DHT22;7177;48.572;7.838;2023-05-07T11:55:52;23.80;99.90
14192;DHT22;7177;48.572;7.838;2023-05-07T11:58:22;23.80;99.90
14192;DHT22;7177;48.572;7.838;2023-05-07T12:00:49;23.60;99.90
14192;DHT22;7177;48.572;7.838;2023-05-07T12:03:15;23.40;99.90
14192;DHT22;7177;48.572;7.838;2023-05-07T12:05:40;23.40;99.90
14192;DHT22;7177;48.572;7.838;2023-05-07T12:08:07;23.10;99.90
14192;DHT22;7177;48.572;7.838;2023-05-07T12:10:33;23.10;99.90
14192;DHT22;7177;48.572;7.838;2023-05-07T12:12:58;23.20;99.90
14192;DHT22;7177;48.572;7.838;2023-05-07T12:15:24;23.30;99.90
14192;DHT22;7177;48.572;7.838;2023-05-07T12:17:49;23.20;99.90
14192;DHT22;7177;48.572;7.838;2023-05-07T12:20:15;23.10;99.90
14192;DHT22;7177;48.572;7.838;2023-05-07T12:22:42;23.10;99.90
14192;DHT22;7177;48.572;7.838;2023-05-07T12:25:08;23.30;99.90
14192;DHT22;7177;48.572;7.838;2023-05-07T12:27:37;23.50;99.90
14192;DHT22;7177;48.572;7.838;2023-05-07T12:30:03;23.50;99.90
14192;DHT22;7177;48.572;7.838;2023-05-07T12:32:29;23.50;99.90
14192;DHT22;7177;48.572;7.838;2023-05-07T12:34:54;23.60;99.90
14192;DHT22;7177;48.572;7.838;2023-05-07T12:37:24;23.60;99.90
14192;DHT22;7177;48.572;7.838;2023-05-07T12:40:12;23.70;99.90
14192;DHT22;7177;48.572;7.838;2023-05-07T12:42:39;23.90;99.90
14192;DHT22;7177;48.572;7.838;2023-05-07T12:45:17;23.90;99.90
14192;DHT22;7177;48.572;7.838;2023-05-07T12:47:44;23.70;99.90
14192;DHT22;7177;48.572;7.838;2023-05-07T12:50:10;23.70;99.90
14192;DHT22;7177;48.572;7.838;2023-05-07T12:52:36;23.70;99.90
14192;DHT22;7177;48.572;7.838;2023-05-07T12:55:06;23.80;99.90
14192;DHT22;7177;48.572;7.838;2023-05-07T12:57:41;24.00;99.90
14192;DHT22;7177;48.572;7.838;2023-05-07T13:00:07;24.10;99.90
14192;DHT22;7177;48.572;7.838;2023-05-07T13:02:37;24.20;99.90
14192;DHT22;7177;48.572;7.838;2023-05-07T13:05:03;24.10;99.90
14192;DHT22;7177;48.572;7.838;2023-05-07T13:07:29;24.20;99.90
14192;DHT22;7177;48.572;7.838;2023-05-07T13:09:54;24.20;99.90
14192;DHT22;7177;48.572;7.838;2023-05-07T13:12:20;24.00;99.90
14192;DHT22;7177;48.572;7.838;2023-05-07T13:14:45;23.70;99.90
14192;DHT22;7177;48.572;7.838;2023-05-07T13:17:11;23.40;99.90
14192;DHT22;7177;48.572;7.838;2023-05-07T13:19:37;23.30;99.90
14192;DHT22;7177;48.572;7.838;2023-05-07T13:22:03;23.10;99.90
14192;DHT22;7177;48.572;7.838;2023-05-07T13:24:28;22.90;99.90
14192;DHT22;7177;48.572;7.838;2023-05-07T13:26:54;22.70;99.90
14192;DHT22;7177;48.572;7.838;2023-05-07T13:29:20;22.70;99.90
14192;DHT22;7177;48.572;7.838;2023-05-07T13:31:50;22.90;99.90
14192;DHT22;7177;48.572;7.838;2023-05-07T13:34:16;23.00;99.90
14192;DHT22;7177;48.572;7.838;2023-05-07T13:36:41;23.20;99.90
14192;DHT22;7177;48.572;7.838;2023-05-07T13:39:07;23.40;99.90
14192;DHT22;7177;48.572;7.838;2023-05-07T13:41:32;23.60;99.90
14192;DHT22;7177;48.572;7.838;2023-05-07T13:43:58;23.80;99.90
14192;DHT22;7177;48.572;7.838;2023-05-07T13:46:23;23.80;99.90
14192;DHT22;7177;48.572;7.838;2023-05-07T13:48:49;23.50;99.90
14192;DHT22;7177;48.572;7.838;2023-05-07T13:51:16;23.10;99.90
14192;DHT22;7177;48.572;7.838;2023-05-07T13:53:42;23.00;99.90
14192;DHT22;7177;48.572;7.838;2023-05-07T13:56:07;22.70;99.90
14192;DHT22;7177;48.572;7.838;2023-05-07T13:58:33;22.80;99.90
14192;DHT22;7177;48.572;7.838;2023-05-07T14:00:58;22.80;99.90
14192;DHT22;7177;48.572;7.838;2023-05-07T14:03:24;22.60;99.90
14192;DHT22;7177;48.572;7.838;2023-05-07T14:05:49;22.50;99.90
14192;DHT22;7177;48.572;7.838;2023-05-07T14:08:15;22.50;99.90
14192;DHT22;7177;48.572;7.838;2023-05-07T14:10:42;22.40;99.90
14192;DHT22;7177;48.572;7.838;2023-05-07T14:13:08;22.30;99.90
14192;DHT22;7177;48.572;7.838;2023-05-07T14:15:33;22.20;99.90
14192;DHT22;7177;48.572;7.838;2023-05-07T14:18:00;22.10;99.90
14192;DHT22;7177;48.572;7.838;2023-05-07T14:20:26;22.00;99.90
14192;DHT22;7177;48.572;7.838;2023-05-07T14:22:51;21.90;99.90
14192;DHT22;7177;48.572;7.838;2023-05-07T14:25:17;21.80;99.90
14192;DHT22;7177;48.572;7.838;2023-05-07T14:27:42;21.80;99.90
14192;DHT22;7177;48.572;7.838;2023-05-07T14:30:08;21.70;99.90
14192;DHT22;7177;48.572;7.838;2023-05-07T14:32:34;21.60;99.90
14192;DHT22;7177;48.572;7.838;2023-05-07T14:35:00;21.50;99.90
14192;DHT22;7177;48.572;7.838;2023-05-07T14:37:25;21.40;99.90
14192;DHT22;7177;48.572;7.838;2023-05-07T14:39:51;21.30;99.90
14192;DHT22;7177;48.572;7.838;2023-05-07T14:42:16;21.40;99.90
14192;DHT22;7177;48.572;7.838;2023-05-07T14:44:42;21.70;99.90
14192;DHT22;7177;48.572;7.838;2023-05-07T14:47:08;22.00;99.90
14192;DHT22;7177;48.572;7.838;2023-05-07T14:49:34;22.20;99.90
14192;DHT22;7177;48.572;7.838;2023-05-07T14:51:59;22.50;99.90
14192;DHT22;7177;48.572;7.838;2023-05-07T14:54:28;22.60;99.90
14192;DHT22;7177;48.572;7.838;2023-05-07T14:56:54;22.50;99.90
14192;DHT22;7177;48.572;7.838;2023-05-07T14:59:20;22.40;99.90
14192;DHT22;7177;48.572;7.838;2023-05-07T15:01:47;22.30;99.90
14192;DHT22;7177;48.572;7.838;2023-05-07T15:04:12;22.30;99.90
14192;DHT22;7177;48.572;7.838;2023-05-07T15:06:38;22.20;99.90
14192;DHT22;7177;48.572;7.838;2023-05-07T15:09:04;22.20;99.90
14192;DHT22;7177;48.572;7.838;2023-05-07T15:11:29;22.10;99.90
14192;DHT22;7177;48.572;7.838;2023-05-07T15:13:55;22.00;99.90
14192;DHT22;7177;48.572;7.838;2023-05-07T15:16:21;22.00;99.90
14192;DHT22;7177;48.572;7.838;2023-05-07T15:18:46;22.00;99.90
14192;DHT22;7177;48.572;7.838;2023-05-07T15:21:12;22.00;99.90
14192;DHT22;7177;48.572;7.838;2023-05-07T15:23:38;22.10;99.90
14192;DHT22;7177;48.572;7.838;2023-05-07T15:26:04;22.20;99.90
14192;DHT22;7177;48.572;7.838;2023-05-07T15:28:30;22.30;99.90
14192;DHT22;7177;48.572;7.838;2023-05-07T15:30:56;22.50;99.90
14192;DHT22;7177;48.572;7.838;2023-05-07T15:33:23;22.50;99.90
14192;DHT22;7177;48.572;7.838;2023-05-07T15:35:48;22.60;99.90
14192;DHT22;7177;48.572;7.838;2023-05-07T15:38:14;23.00;99.90
14192;DHT22;7177;48.572;7.838;2023-05-07T15:40:39;23.30;99.90
14192;DHT22;7177;48.572;7.838;2023-05-07T15:43:09;23.50;99.90
14192;DHT22;7177;48.572;7.838;2023-05-07T15:45:42;23.30;99.90
14192;DHT22;7177;48.572;7.838;2023-05-07T15:48:09;23.10;99.90
14192;DHT22;7177;48.572;7.838;2023-05-07T15:50:35;23.10;99.90
14192;DHT22;7177;48.572;7.838;2023-05-07T15:53:01;23.00;99.90